Time;durP1;ratioP1;P1;durP2;ratioP2;P2;SDS_P1;SDS_P2;PMS_P1;PMS_P2;Temp;Humidity;BMP_temperature;BMP_pressure;BME280_temperature;BME280_humidity;BME280_pressure;Samples;Min_cycle;Max_cycle;Signal;HPM_P1;HPM_P2
2022/04/21 00:01:09;;;;;;;5.72;2.50;;;8.20;57.80;;;;;;4934875;29;20071;-71
2022/04/21 00:03:37;;;;;;;6.03;2.50;;;8.20;57.80;;;;;;4933478;29;20052;-71
2022/04/21 00:06:05;;;;;;;10.20;2.83;;;8.20;57.90;;;;;;4917661;29;20358;-71
2022/04/21 00:08:32;;;;;;;6.07;2.38;;;8.20;58.10;;;;;;4940305;29;20058;-71
2022/04/21 00:11:00;;;;;;;5.90;3.15;;;8.10;58.00;;;;;;4953855;28;20382;-71
2022/04/21 00:13:27;;;;;;;5.22;2.50;;;8.10;58.10;;;;;;4952836;28;20055;-71
2022/04/21 00:15:55;;;;;;;4.93;2.55;;;8.10;58.30;;;;;;4953057;28;20058;-71
2022/04/21 00:18:23;;;;;;;5.20;3.05;;;8.00;58.30;;;;;;4953783;28;20051;-71
2022/04/21 00:20:50;;;;;;;5.97;2.47;;;8.00;58.50;;;;;;4922731;29;20059;-70
2022/04/21 00:23:27;;;;;;;7.97;3.00;;;8.00;58.60;;;;;;4957421;28;20051;-70
2022/04/21 00:26:00;;;;;;;9.20;2.80;;;7.90;58.80;;;;;;4940581;29;20047;-70
2022/04/21 00:28:29;;;;;;;7.82;2.60;;;7.80;58.90;;;;;;4957764;28;20051;-71
2022/04/21 00:30:57;;;;;;;8.68;2.42;;;7.80;59.00;;;;;;4957244;28;20048;-71
2022/04/21 00:33:25;;;;;;;6.68;3.03;;;7.80;59.30;;;;;;4957138;29;20054;-71
2022/04/21 00:35:52;;;;;;;3.17;2.40;;;7.70;59.50;;;;;;4940308;29;20062;-71
2022/04/21 00:38:21;;;;;;;5.07;2.60;;;7.70;59.70;;;;;;4957168;28;20445;-70
2022/04/21 00:40:49;;;;;;;7.13;2.80;;;7.70;59.80;;;;;;4957168;28;20047;-71
2022/04/21 00:43:17;;;;;;;6.95;2.75;;;7.60;59.90;;;;;;4940065;28;20058;-71
2022/04/21 00:45:45;;;;;;;6.57;2.60;;;7.60;59.90;;;;;;4939704;29;20058;-71
2022/04/21 00:48:13;;;;;;;6.82;2.80;;;7.50;60.20;;;;;;4956823;28;20055;-71
2022/04/21 00:50:41;;;;;;;6.55;2.45;;;7.50;60.40;;;;;;4940036;29;20131;-71
2022/04/21 00:53:08;;;;;;;9.60;3.28;;;7.40;60.60;;;;;;4956977;28;20051;-71
2022/04/21 00:55:41;;;;;;;10.10;2.95;;;7.30;60.90;;;;;;4908392;29;20058;-71
2022/04/21 00:58:09;;;;;;;6.90;3.35;;;7.30;61.10;;;;;;4956011;28;20055;-71
2022/04/21 01:00:36;;;;;;;8.68;3.25;;;7.30;61.30;;;;;;4923761;29;20055;-72
2022/04/21 01:03:06;;;;;;;7.45;3.25;;;7.30;61.50;;;;;;4938862;29;20054;-72
2022/04/21 01:05:34;;;;;;;9.23;3.33;;;7.30;61.70;;;;;;4954839;28;20055;-72
2022/04/21 01:08:07;;;;;;;7.50;3.28;;;7.30;61.70;;;;;;4956609;29;20051;-72
2022/04/21 01:10:36;;;;;;;9.38;3.30;;;7.30;62.00;;;;;;4956585;28;20387;-72
2022/04/21 01:13:06;;;;;;;8.13;3.08;;;7.30;62.10;;;;;;4956533;28;20225;-70
2022/04/21 01:15:35;;;;;;;6.05;3.42;;;7.30;62.40;;;;;;4956576;28;20048;-71
2022/04/21 01:18:03;;;;;;;9.77;3.45;;;7.30;62.50;;;;;;4939376;29;20047;-71
2022/04/21 01:20:31;;;;;;;6.70;3.53;;;7.30;62.60;;;;;;4956340;28;20488;-71
2022/04/21 01:22:59;;;;;;;7.05;3.15;;;7.30;63.00;;;;;;4955337;28;20528;-71
2022/04/21 01:25:27;;;;;;;8.15;3.55;;;7.30;63.00;;;;;;4955797;28;20047;-71
2022/04/21 01:27:59;;;;;;;7.60;3.80;;;7.30;63.10;;;;;;4906717;29;20058;-72
2022/04/21 01:30:27;;;;;;;9.52;3.88;;;7.30;63.30;;;;;;4939315;29;20066;-72
2022/04/21 01:32:54;;;;;;;5.93;3.50;;;7.30;63.20;;;;;;4955301;28;20378;-72
2022/04/21 01:35:22;;;;;;;11.02;4.03;;;7.30;63.40;;;;;;4956092;28;20517;-71
2022/04/21 01:43:22;;;;;;;7.63;4.13;;;7.30;63.50;;;;;;4956363;29;20397;-71
2022/04/21 01:45:50;;;;;;;8.23;4.00;;;7.30;63.60;;;;;;4954988;28;20051;-72
2022/04/21 01:48:17;;;;;;;8.77;4.00;;;7.30;63.70;;;;;;4938414;29;20055;-71
2022/04/21 01:50:45;;;;;;;7.10;3.42;;;7.30;64.00;;;;;;4955937;28;20043;-72
2022/04/21 01:53:12;;;;;;;9.25;3.97;;;7.30;64.20;;;;;;4955786;28;20515;-71
2022/04/21 01:55:40;;;;;;;11.95;3.92;;;7.20;64.20;;;;;;4955665;28;20047;-71
2022/04/21 01:58:08;;;;;;;8.07;3.60;;;7.30;64.30;;;;;;4938781;29;20051;-71
2022/04/21 02:00:36;;;;;;;8.50;3.90;;;7.30;64.40;;;;;;4938267;28;20070;-72
2022/04/21 02:03:03;;;;;;;9.60;4.50;;;7.30;64.70;;;;;;4954613;29;20512;-72
2022/04/21 02:05:31;;;;;;;8.18;4.28;;;7.30;64.80;;;;;;4955659;29;20055;-71
2022/04/21 02:08:00;;;;;;;9.18;4.30;;;7.30;65.00;;;;;;4937888;29;20051;-72
2022/04/21 02:10:27;;;;;;;7.20;3.83;;;7.30;65.00;;;;;;4936863;29;20393;-71
2022/04/21 02:12:55;;;;;;;8.63;4.03;;;7.20;65.10;;;;;;4955243;28;20039;-71
2022/04/21 02:15:23;;;;;;;9.77;4.22;;;7.20;65.30;;;;;;4954623;28;20059;-71
2022/04/21 02:17:51;;;;;;;8.68;4.13;;;7.20;65.50;;;;;;4954701;28;20464;-71
2022/04/21 02:20:18;;;;;;;13.60;4.03;;;7.20;65.80;;;;;;4955264;29;20343;-72
2022/04/21 02:22:46;;;;;;;8.95;4.55;;;7.10;66.10;;;;;;4954134;28;20051;-71
2022/04/21 02:25:16;;;;;;;8.10;4.10;;;7.10;66.30;;;;;;4955164;28;20054;-71
2022/04/21 02:27:46;;;;;;;13.13;4.40;;;7.10;66.60;;;;;;4955139;29;20050;-72
2022/04/21 02:30:16;;;;;;;7.72;4.60;;;7.10;66.80;;;;;;4954981;28;20055;-72
2022/04/21 02:32:44;;;;;;;8.45;3.80;;;7.00;67.10;;;;;;4955052;28;20059;-72
2022/04/21 02:35:13;;;;;;;10.32;4.45;;;7.00;67.70;;;;;;4937698;29;20505;-71
2022/04/21 02:37:46;;;;;;;7.25;3.75;;;7.00;67.90;;;;;;4954944;28;20054;-71
2022/04/21 02:40:14;;;;;;;9.20;3.85;;;7.00;68.40;;;;;;4955195;28;20043;-71
2022/04/21 02:42:42;;;;;;;9.23;4.10;;;7.00;68.90;;;;;;4937797;29;20039;-71
2022/04/21 02:45:12;;;;;;;8.90;3.72;;;7.00;69.30;;;;;;4954660;28;20051;-71
2022/04/21 02:47:45;;;;;;;8.98;3.95;;;6.90;69.50;;;;;;4937734;29;20405;-72
2022/04/21 02:50:16;;;;;;;15.13;3.95;;;6.90;69.90;;;;;;4954932;29;20548;-72
2022/04/21 02:52:44;;;;;;;11.43;4.00;;;6.90;70.40;;;;;;4954572;28;20273;-72
2022/04/21 02:57:59;;;;;;;9.70;3.83;;;6.90;70.90;;;;;;4935415;29;20047;-72
2022/04/21 03:00:27;;;;;;;10.73;3.70;;;6.90;71.40;;;;;;4934781;29;20054;-72
2022/04/21 03:02:56;;;;;;;8.25;3.78;;;6.90;71.70;;;;;;4934370;29;20044;-72
2022/04/21 03:05:24;;;;;;;10.65;3.90;;;7.00;71.80;;;;;;4935368;29;20509;-72
2022/04/21 03:07:52;;;;;;;9.45;3.90;;;6.90;72.20;;;;;;4935358;29;20040;-72
2022/04/21 03:10:19;;;;;;;6.22;3.75;;;7.00;72.40;;;;;;4918229;29;20055;-72
2022/04/21 03:12:47;;;;;;;11.77;4.28;;;7.00;72.40;;;;;;4902465;29;20055;-72
2022/04/21 03:15:15;;;;;;;12.32;4.03;;;7.00;72.70;;;;;;4902295;29;20082;-71
2022/04/21 03:17:42;;;;;;;9.02;3.65;;;6.90;72.70;;;;;;4918309;29;20397;-72
2022/04/21 03:24:18;;;;;;;11.80;3.85;;;6.90;72.80;;;;;;4918077;29;20062;-72
2022/04/21 03:25:44;;;;;;;9.95;4.03;;;6.80;73.10;;;;;;4935019;29;20059;-72
2022/04/21 03:28:13;;;;;;;7.22;3.78;;;6.80;73.20;;;;;;4934991;29;20401;-72
2022/04/21 03:30:40;;;;;;;8.52;4.10;;;6.80;73.30;;;;;;4935048;29;20052;-71
2022/04/21 03:33:08;;;;;;;11.32;4.22;;;6.80;73.40;;;;;;4935057;29;20050;-71
2022/04/21 03:35:36;;;;;;;5.45;3.58;;;6.70;73.50;;;;;;4917829;29;20055;-72
2022/04/21 03:38:03;;;;;;;9.93;4.00;;;6.70;73.80;;;;;;4918016;29;20074;-72
2022/04/21 03:40:31;;;;;;;9.25;3.65;;;6.70;74.00;;;;;;4934834;29;20047;-71
2022/04/21 03:42:59;;;;;;;15.18;4.05;;;6.70;74.20;;;;;;4934771;29;20409;-72
2022/04/21 03:45:26;;;;;;;9.75;4.05;;;6.70;74.20;;;;;;4934845;29;20048;-72
2022/04/21 03:47:54;;;;;;;8.02;3.97;;;6.70;74.30;;;;;;4934067;29;20051;-72
2022/04/21 03:50:21;;;;;;;15.00;4.35;;;6.60;74.40;;;;;;4917838;29;20047;-72
2022/04/21 03:52:49;;;;;;;8.90;4.20;;;6.60;74.50;;;;;;4917606;29;20059;-72
2022/04/21 03:55:16;;;;;;;17.55;4.10;;;6.60;74.60;;;;;;4936531;29;20051;-71
2022/04/21 03:57:44;;;;;;;12.77;4.22;;;6.60;75.00;;;;;;4921805;29;20059;-72
2022/04/21 04:00:12;;;;;;;12.00;4.40;;;6.60;74.90;;;;;;4940336;29;22169;-72
2022/04/21 04:02:39;;;;;;;11.98;4.25;;;6.60;75.00;;;;;;4957870;28;20067;-72
2022/04/21 04:05:08;;;;;;;12.50;4.18;;;6.60;75.00;;;;;;4957745;28;20054;-72
2022/04/21 04:13:07;;;;;;;10.20;4.25;;;6.50;75.30;;;;;;4940407;29;20059;-72
2022/04/21 04:15:35;;;;;;;14.57;4.80;;;6.50;75.30;;;;;;4957585;28;20066;-72
2022/04/21 04:18:02;;;;;;;14.48;5.35;;;6.40;75.40;;;;;;4940128;29;20047;-72
2022/04/21 04:20:30;;;;;;;15.93;4.80;;;6.40;75.60;;;;;;4957477;28;20039;-72
2022/04/21 04:22:58;;;;;;;11.13;4.47;;;6.40;75.70;;;;;;4957320;28;20051;-72
2022/04/21 04:25:25;;;;;;;9.38;4.63;;;6.40;75.80;;;;;;4957093;28;20051;-72
2022/04/21 04:27:53;;;;;;;13.30;5.13;;;6.30;75.90;;;;;;4940352;29;20051;-72
2022/04/21 04:30:27;;;;;;;12.75;4.65;;;6.30;76.10;;;;;;4925056;29;20066;-72
2022/04/21 04:32:54;;;;;;;11.80;5.40;;;6.30;76.20;;;;;;4940269;29;20050;-72
2022/04/21 04:35:24;;;;;;;13.68;5.25;;;6.40;76.30;;;;;;4957208;29;20058;-72
2022/04/21 04:37:53;;;;;;;12.70;5.93;;;6.40;76.40;;;;;;4940098;29;20055;-72
2022/04/21 04:40:20;;;;;;;17.95;5.45;;;6.40;76.50;;;;;;4939316;29;20059;-72
2022/04/21 04:42:48;;;;;;;15.63;4.82;;;6.40;76.50;;;;;;4957048;29;20052;-72
2022/04/21 04:48:02;;;;;;;10.25;5.07;;;6.40;76.60;;;;;;4939686;29;20050;-72
2022/04/21 04:50:29;;;;;;;12.98;5.90;;;6.30;76.60;;;;;;4956852;28;20404;-71
2022/04/21 04:53:00;;;;;;;9.40;5.22;;;6.40;76.80;;;;;;4939946;29;20055;-72
2022/04/21 04:55:30;;;;;;;12.15;5.70;;;6.40;76.80;;;;;;4956728;29;20056;-72
2022/04/21 04:57:57;;;;;;;11.50;5.75;;;6.40;76.80;;;;;;4956839;28;20066;-71
2022/04/21 05:00:27;;;;;;;16.08;6.22;;;6.40;76.90;;;;;;4956727;29;20047;-71
2022/04/21 05:02:54;;;;;;;11.82;5.50;;;6.40;76.90;;;;;;4939746;29;20066;-71
2022/04/21 05:05:22;;;;;;;12.57;6.25;;;6.50;76.90;;;;;;4939529;29;20047;-72
2022/04/21 05:07:49;;;;;;;13.63;6.35;;;6.40;76.90;;;;;;4938407;28;20047;-72
2022/04/21 05:10:19;;;;;;;17.10;6.63;;;6.40;76.90;;;;;;4956466;28;20485;-71
2022/04/21 05:12:46;;;;;;;19.60;7.43;;;6.40;77.00;;;;;;4956551;29;20040;-72
2022/04/21 05:15:14;;;;;;;21.40;7.80;;;6.40;77.20;;;;;;4956508;29;20055;-71
2022/04/21 05:17:42;;;;;;;16.70;6.78;;;6.40;77.20;;;;;;4939378;29;20047;-72
2022/04/21 05:20:26;;;;;;;14.05;6.93;;;6.30;77.20;;;;;;4939279;29;20058;-72
2022/04/21 05:23:03;;;;;;;12.00;7.10;;;6.30;77.30;;;;;;4938877;29;20058;-72
2022/04/21 05:25:33;;;;;;;16.70;7.50;;;6.30;77.40;;;;;;4939109;29;20405;-72
2022/04/21 05:28:00;;;;;;;20.67;7.82;;;6.20;77.50;;;;;;4956365;28;20050;-72
2022/04/21 05:33:15;;;;;;;11.95;7.13;;;6.20;77.60;;;;;;4956217;28;20043;-71
2022/04/21 05:35:43;;;;;;;15.48;7.93;;;6.30;77.60;;;;;;4955128;29;20055;-72
2022/04/21 05:38:11;;;;;;;21.42;8.20;;;6.30;77.70;;;;;;4956076;28;20162;-72
2022/04/21 05:40:39;;;;;;;12.52;7.55;;;6.30;77.90;;;;;;4938671;29;20057;-72
2022/04/21 05:43:10;;;;;;;18.75;7.85;;;6.30;77.90;;;;;;4956438;28;20516;-71
2022/04/21 05:45:38;;;;;;;15.13;7.82;;;6.30;77.90;;;;;;4955250;29;20059;-72
2022/04/21 05:48:06;;;;;;;18.05;7.35;;;6.30;78.00;;;;;;4955019;28;20058;-72
2022/04/21 05:50:34;;;;;;;20.65;8.35;;;6.40;77.90;;;;;;4954881;28;20047;-71
2022/04/21 05:53:03;;;;;;;16.95;7.53;;;6.40;77.90;;;;;;4955745;28;20055;-71
2022/04/21 05:55:31;;;;;;;15.70;7.82;;;6.40;78.00;;;;;;4955791;28;20071;-72
2022/04/21 05:57:58;;;;;;;20.27;8.38;;;6.50;78.00;;;;;;4955724;28;20047;-72
2022/04/21 06:00:26;;;;;;;16.50;7.53;;;6.50;77.90;;;;;;4955735;29;20397;-72
2022/04/21 06:02:54;;;;;;;16.50;7.80;;;6.60;78.10;;;;;;4938548;29;20055;-72
2022/04/21 06:05:22;;;;;;;14.50;7.53;;;6.70;77.90;;;;;;4955452;28;20051;-72
2022/04/21 06:07:50;;;;;;;15.50;7.70;;;6.70;77.80;;;;;;4955486;29;20483;-72
2022/04/21 06:10:17;;;;;;;13.40;6.70;;;6.80;77.80;;;;;;4955530;28;20429;-72
2022/04/21 06:12:45;;;;;;;11.82;7.00;;;6.80;77.70;;;;;;4955538;29;20523;-72
2022/04/21 06:15:13;;;;;;;11.43;6.60;;;6.90;77.70;;;;;;4955420;28;20051;-72
2022/04/21 06:17:42;;;;;;;14.98;6.82;;;6.90;77.60;;;;;;4955107;28;20054;-71
2022/04/21 06:20:13;;;;;;;15.13;6.97;;;7.00;77.30;;;;;;4955408;28;20059;-71
2022/04/21 06:22:41;;;;;;;12.55;5.97;;;7.10;77.20;;;;;;4954885;28;20058;-71
2022/04/21 06:25:08;;;;;;;9.52;6.40;;;7.10;77.10;;;;;;4955079;28;20409;-71
2022/04/21 06:27:36;;;;;;;13.07;6.20;;;7.20;77.00;;;;;;4954229;29;20055;-71
2022/04/21 06:30:04;;;;;;;14.88;6.03;;;7.20;76.90;;;;;;4955203;29;20050;-71
2022/04/21 06:32:32;;;;;;;10.98;6.10;;;7.30;76.80;;;;;;4955036;28;20437;-71
2022/04/21 06:34:59;;;;;;;9.48;6.15;;;7.30;76.70;;;;;;4955043;28;20058;-72
2022/04/21 06:37:27;;;;;;;13.15;5.85;;;7.40;76.60;;;;;;4937765;29;20055;-72
2022/04/21 06:39:54;;;;;;;9.52;6.00;;;7.50;76.40;;;;;;4954339;29;20072;-72
2022/04/21 06:42:22;;;;;;;11.25;5.50;;;7.60;76.20;;;;;;4954513;29;20532;-72
2022/04/21 06:48:13;;;;;;;11.55;5.68;;;7.80;75.80;;;;;;4953980;29;20047;-72
2022/04/21 06:50:30;;;;;;;;;;;8.00;75.50;;;;;;4934657;29;20054;-72
2022/04/21 06:52:57;;;;;;;10.10;5.43;;;8.10;75.20;;;;;;4954807;29;19922;-72
2022/04/21 06:55:25;;;;;;;17.55;6.07;;;8.20;74.90;;;;;;4954746;29;20047;-72
2022/04/21 06:57:53;;;;;;;10.65;5.18;;;8.30;74.60;;;;;;4954314;29;20056;-72
2022/04/21 07:00:22;;;;;;;14.15;5.22;;;8.50;74.40;;;;;;4937556;29;20059;-70
2022/04/21 07:02:55;;;;;;;14.88;5.30;;;8.60;74.10;;;;;;4954684;29;20482;-71
2022/04/21 07:05:24;;;;;;;12.35;5.03;;;8.70;73.90;;;;;;4937202;29;20055;-72
2022/04/21 07:07:52;;;;;;;13.48;5.55;;;8.80;73.60;;;;;;4954626;28;20047;-71
2022/04/21 07:10:21;;;;;;;11.20;5.43;;;8.90;73.50;;;;;;4954667;29;20043;-71
2022/04/21 07:12:48;;;;;;;10.23;5.45;;;8.90;73.20;;;;;;4954487;28;20059;-71
2022/04/21 07:15:17;;;;;;;12.15;4.97;;;9.00;73.00;;;;;;4953493;29;20066;-71
2022/04/21 07:17:44;;;;;;;16.90;5.40;;;9.10;72.80;;;;;;4954464;29;20405;-71
2022/04/21 07:20:13;;;;;;;12.50;4.90;;;9.10;72.60;;;;;;4937025;29;20043;-71
2022/04/21 07:22:40;;;;;;;9.82;5.07;;;9.20;72.40;;;;;;4936723;29;20051;-71
2022/04/21 07:25:09;;;;;;;9.88;5.25;;;9.20;72.30;;;;;;4936935;29;20058;-72
2022/04/21 07:27:37;;;;;;;14.68;5.32;;;9.30;72.10;;;;;;4937512;28;20054;-72
2022/04/21 07:30:08;;;;;;;9.05;5.38;;;9.30;71.90;;;;;;4953524;28;20406;-72
2022/04/21 07:32:36;;;;;;;13.82;5.57;;;9.50;71.70;;;;;;4954316;29;20424;-72
2022/04/21 07:35:04;;;;;;;10.10;5.13;;;9.60;71.40;;;;;;4936812;29;20055;-73
2022/04/21 07:37:36;;;;;;;10.07;5.22;;;9.70;71.00;;;;;;4954275;28;20050;-72
2022/04/21 07:40:05;;;;;;;9.32;4.97;;;9.70;70.70;;;;;;4954038;28;20454;-72
2022/04/21 07:42:33;;;;;;;11.65;4.85;;;9.80;70.30;;;;;;4954153;29;20051;-72
2022/04/21 07:45:01;;;;;;;8.40;5.13;;;9.90;70.00;;;;;;4921232;29;20047;-73
2022/04/21 07:47:29;;;;;;;10.10;4.80;;;10.00;69.60;;;;;;4936771;29;20062;-72
2022/04/21 07:49:57;;;;;;;8.25;4.55;;;10.00;69.50;;;;;;4936760;29;20044;-73
2022/04/21 07:55:24;;;;;;;12.60;5.05;;;10.10;68.90;;;;;;4954030;29;20048;-72
2022/04/21 07:57:55;;;;;;;13.13;5.13;;;10.20;68.70;;;;;;4954326;28;20499;-73
2022/04/21 08:00:23;;;;;;;10.93;5.40;;;10.20;68.40;;;;;;4954056;29;20498;-71
2022/04/21 08:02:51;;;;;;;6.25;4.85;;;10.30;68.10;;;;;;4953761;28;20401;-72
2022/04/21 08:05:21;;;;;;;9.32;5.10;;;10.30;67.80;;;;;;4953797;28;20059;-73
2022/04/21 08:07:50;;;;;;;14.30;4.90;;;10.40;67.60;;;;;;4936965;29;20508;-72
2022/04/21 08:10:20;;;;;;;13.73;4.90;;;10.50;67.50;;;;;;4953202;28;20513;-73
2022/04/21 08:12:49;;;;;;;9.15;4.80;;;10.60;67.20;;;;;;4953860;28;20066;-72
2022/04/21 08:15:27;;;;;;;8.45;4.72;;;10.70;66.80;;;;;;4936651;29;20055;-72
2022/04/21 08:18:00;;;;;;;8.63;4.65;;;10.80;66.40;;;;;;4953725;29;20054;-71
2022/04/21 08:20:30;;;;;;;7.80;5.07;;;10.90;65.90;;;;;;4953844;28;20494;-72
2022/04/21 08:22:57;;;;;;;8.60;4.72;;;11.10;65.60;;;;;;4953593;29;20508;-71
2022/04/21 08:34:25;;;;;;;9.82;5.07;;;11.50;63.10;;;;;;4953663;28;20055;-72
2022/04/21 08:36:54;;;;;;;10.35;4.70;;;11.60;62.40;;;;;;4953416;29;20055;-72
2022/04/21 08:39:23;;;;;;;11.20;5.40;;;11.70;61.70;;;;;;4953478;29;20044;-72
2022/04/21 08:42:00;;;;;;;7.95;4.50;;;11.80;61.70;;;;;;4955560;28;20537;-72
2022/04/21 08:44:33;;;;;;;9.85;4.70;;;11.80;61.00;;;;;;4957122;28;20054;-72
2022/04/21 08:47:05;;;;;;;12.38;4.50;;;11.90;60.60;;;;;;4940190;29;20051;-73
2022/04/21 08:49:34;;;;;;;7.47;4.80;;;11.90;60.30;;;;;;4957158;28;20054;-73
2022/04/21 08:52:01;;;;;;;6.85;4.30;;;12.00;59.50;;;;;;4939592;29;20051;-73
2022/04/21 08:54:30;;;;;;;7.75;4.60;;;12.10;58.90;;;;;;4939631;29;20051;-73
2022/04/21 08:56:59;;;;;;;10.25;4.50;;;12.20;58.90;;;;;;4939679;29;20043;-73
2022/04/21 08:59:27;;;;;;;11.27;4.32;;;12.30;58.40;;;;;;4939755;29;20054;-73
2022/04/21 09:01:59;;;;;;;7.63;4.72;;;12.40;58.20;;;;;;4939805;29;20539;-73
2022/04/21 09:04:29;;;;;;;7.10;4.15;;;12.50;57.70;;;;;;4939842;29;20048;-73
2022/04/21 09:07:21;;;;;;;8.35;4.28;;;12.60;57.40;;;;;;4955783;28;20058;-72
2022/04/21 09:10:07;;;;;;;8.88;4.60;;;12.70;57.30;;;;;;4956568;29;20055;-73
2022/04/21 09:12:44;;;;;;;10.30;3.95;;;12.80;57.10;;;;;;4956810;28;20051;-72
2022/04/21 09:15:17;;;;;;;8.40;4.35;;;12.80;56.80;;;;;;4956593;29;20058;-71
2022/04/21 09:17:47;;;;;;;14.52;5.05;;;13.00;56.80;;;;;;4956552;28;20051;-71
2022/04/21 09:20:17;;;;;;;9.60;4.82;;;13.10;56.60;;;;;;4955617;28;20070;-72
2022/04/21 09:22:55;;;;;;;8.90;5.13;;;13.20;56.10;;;;;;4955660;28;20397;-72
2022/04/21 09:25:27;;;;;;;7.78;4.97;;;13.30;55.70;;;;;;4954573;28;20425;-73
2022/04/21 09:27:55;;;;;;;6.82;4.70;;;13.30;55.90;;;;;;4956016;29;20054;-71
2022/04/21 09:30:24;;;;;;;9.57;4.97;;;13.40;55.80;;;;;;4955787;29;20051;-72
2022/04/21 09:32:56;;;;;;;5.90;4.60;;;13.60;55.70;;;;;;4956057;29;20397;-72
2022/04/21 09:35:26;;;;;;;7.63;5.18;;;13.80;55.10;;;;;;4954708;29;20508;-72
2022/04/21 09:37:56;;;;;;;10.00;5.35;;;13.80;54.60;;;;;;4955832;29;20051;-71
2022/04/21 09:40:29;;;;;;;15.75;5.32;;;13.80;54.80;;;;;;4955990;29;20051;-71
2022/04/21 09:43:02;;;;;;;16.33;6.10;;;14.00;54.70;;;;;;4955864;29;20062;-71
2022/04/21 09:48:33;;;;;;;13.77;6.35;;;14.30;54.50;;;;;;4954607;29;20047;-72
2022/04/21 09:51:22;;;;;;;12.07;6.63;;;14.50;54.10;;;;;;4954616;29;20063;-72
2022/04/21 09:53:56;;;;;;;9.75;6.30;;;14.60;53.70;;;;;;4954907;28;20043;-72
2022/04/21 09:56:33;;;;;;;9.32;6.43;;;14.80;53.50;;;;;;4955579;29;20055;-72
2022/04/21 09:59:04;;;;;;;11.13;6.32;;;14.80;52.60;;;;;;4955428;29;20054;-71
2022/04/21 10:01:35;;;;;;;14.52;6.53;;;14.90;52.40;;;;;;4953965;29;20134;-71
2022/04/21 10:04:06;;;;;;;15.55;7.28;;;15.00;52.60;;;;;;4955034;29;20047;-72
2022/04/21 10:06:37;;;;;;;11.18;6.72;;;15.00;52.30;;;;;;4955090;29;20511;-71
2022/04/21 10:09:09;;;;;;;8.48;6.28;;;15.10;51.90;;;;;;4953995;29;20047;-72
2022/04/21 10:11:42;;;;;;;8.18;6.90;;;15.10;51.20;;;;;;4954152;29;20494;-72
2022/04/21 10:14:12;;;;;;;9.00;5.88;;;15.10;51.70;;;;;;4955055;29;20050;-72
2022/04/21 10:16:45;;;;;;;10.32;6.05;;;15.20;51.40;;;;;;4955224;29;20067;-72
2022/04/21 10:19:19;;;;;;;11.38;6.40;;;15.30;51.30;;;;;;4955044;29;20477;-72
2022/04/21 10:21:48;;;;;;;;;;;15.30;51.20;;;;;;4960729;28;20509;-72
2022/04/21 10:24:26;;;;;;;10.75;6.25;;;15.40;51.10;;;;;;4973744;28;20415;-72
2022/04/21 10:26:55;;;;;;;10.40;6.63;;;15.40;51.00;;;;;;4956417;28;20065;-72
2022/04/21 10:29:26;;;;;;;10.15;6.30;;;15.50;51.20;;;;;;4974046;28;20046;-72
2022/04/21 10:32:05;;;;;;;8.82;7.13;;;15.80;51.10;;;;;;4957258;28;20051;-71
2022/04/21 10:34:37;;;;;;;12.18;7.15;;;15.90;51.20;;;;;;4974042;28;20043;-72
2022/04/21 10:37:32;;;;;;;9.52;6.45;;;16.20;50.50;;;;;;4973491;28;20065;-72
2022/04/21 10:40:03;;;;;;;;;;;16.30;49.40;;;;;;4974533;28;20404;-71
2022/04/21 10:42:53;;;;;;;17.10;6.78;;;16.30;49.20;;;;;;4974050;28;19929;-71
2022/04/21 10:45:25;;;;;;;11.07;6.20;;;16.30;49.20;;;;;;4973785;28;20043;-71
2022/04/21 10:48:04;;;;;;;10.98;6.30;;;16.30;48.90;;;;;;4972737;28;20504;-71
2022/04/21 10:50:34;;;;;;;10.98;6.55;;;16.60;49.40;;;;;;4974152;28;20051;-71
2022/04/21 10:58:34;;;;;;;15.95;6.65;;;16.90;48.20;;;;;;4972502;28;20066;-70
2022/04/21 11:01:31;;;;;;;7.82;5.93;;;17.10;48.00;;;;;;4956614;28;20054;-71
2022/04/21 11:04:11;;;;;;;7.38;6.45;;;17.30;47.70;;;;;;4970565;28;20525;-71
2022/04/21 11:06:41;;;;;;;14.88;6.47;;;17.30;47.60;;;;;;4973512;28;20054;-71
2022/04/21 11:09:29;;;;;;;9.60;5.45;;;17.50;47.20;;;;;;4955953;28;20500;-71
2022/04/21 11:11:57;;;;;;;13.60;5.88;;;17.50;46.60;;;;;;4973169;28;20053;-71
2022/04/21 11:14:29;;;;;;;7.57;5.55;;;17.60;46.00;;;;;;4973342;28;20130;-71
2022/04/21 11:16:58;;;;;;;6.75;5.50;;;17.60;46.10;;;;;;4955898;28;20055;-71
2022/04/21 11:19:28;;;;;;;10.57;5.88;;;17.70;45.90;;;;;;4955156;28;20051;-71
2022/04/21 11:22:01;;;;;;;13.43;5.97;;;17.80;45.90;;;;;;4973147;28;20529;-70
2022/04/21 11:25:07;;;;;;;7.38;5.15;;;17.80;46.10;;;;;;4973327;28;20046;-71
2022/04/21 11:27:42;;;;;;;10.10;5.53;;;17.90;45.10;;;;;;4972886;28;20047;-71
2022/04/21 11:30:14;;;;;;;11.88;5.85;;;17.80;45.40;;;;;;4973377;28;20055;-71
2022/04/21 11:32:50;;;;;;;7.18;5.80;;;17.80;45.80;;;;;;4972713;28;20050;-71
2022/04/21 11:35:22;;;;;;;10.90;5.60;;;18.00;45.70;;;;;;4972972;28;20381;-71
2022/04/21 11:37:58;;;;;;;8.40;4.97;;;18.10;45.40;;;;;;4973031;28;20065;-71
2022/04/21 11:40:30;;;;;;;10.45;5.93;;;18.20;45.30;;;;;;4972731;28;20047;-71
2022/04/21 11:43:02;;;;;;;7.05;5.07;;;18.30;45.10;;;;;;4972477;28;20051;-71
2022/04/21 11:45:38;;;;;;;8.35;5.72;;;18.30;44.90;;;;;;4955908;28;20051;-71
2022/04/21 11:48:11;;;;;;;11.63;5.20;;;18.20;45.10;;;;;;4955466;28;20054;-71
2022/04/21 11:50:46;;;;;;;10.10;6.07;;;18.20;45.40;;;;;;4955992;28;20049;-71
2022/04/21 11:53:20;;;;;;;7.10;5.10;;;18.40;45.40;;;;;;4972929;28;20051;-71
2022/04/21 11:55:49;;;;;;;8.00;5.00;;;18.70;44.70;;;;;;4955530;28;20047;-71
2022/04/21 11:58:27;;;;;;;9.23;5.05;;;18.90;44.20;;;;;;4973112;28;20054;-71
2022/04/21 12:06:48;;;;;;;10.13;5.55;;;19.10;42.50;;;;;;4972839;28;20042;-71
2022/04/21 12:09:22;;;;;;;7.18;4.80;;;19.00;43.00;;;;;;4972634;28;20055;-71
2022/04/21 12:11:58;;;;;;;9.30;5.82;;;19.00;42.90;;;;;;4972962;28;20420;-72
2022/04/21 12:14:27;;;;;;;7.38;5.50;;;18.90;42.90;;;;;;4973014;28;20069;-72
2022/04/21 12:16:57;;;;;;;10.73;5.28;;;19.00;42.90;;;;;;4958141;28;20050;-72
2022/04/21 12:19:45;;;;;;;9.35;5.18;;;19.10;43.00;;;;;;4976573;28;20043;-71
2022/04/21 12:22:19;;;;;;;8.07;5.72;;;19.30;41.60;;;;;;4976510;28;20061;-71
2022/04/21 12:24:48;;;;;;;9.05;5.75;;;19.30;41.70;;;;;;4943261;28;20056;-71
2022/04/21 12:27:17;;;;;;;6.78;5.47;;;19.30;42.10;;;;;;4954690;28;20265;-71
2022/04/21 12:29:56;;;;;;;7.22;5.90;;;19.50;42.10;;;;;;4958589;28;20077;-71
2022/04/21 12:32:27;;;;;;;9.07;5.95;;;19.80;42.20;;;;;;4976485;28;20039;-73
2022/04/21 12:34:58;;;;;;;11.75;4.90;;;20.30;40.70;;;;;;4943178;28;20055;-71
2022/04/21 12:37:30;;;;;;;6.43;5.30;;;20.70;39.70;;;;;;4958730;28;20074;-71
2022/04/21 12:40:00;;;;;;;6.70;5.70;;;21.00;38.70;;;;;;4958809;28;20496;-71
2022/04/21 12:42:50;;;;;;;13.98;5.80;;;21.30;39.00;;;;;;4976443;28;20054;-71
2022/04/21 12:45:18;;;;;;;6.47;5.18;;;21.20;38.70;;;;;;4959441;28;20413;-71
2022/04/21 12:47:47;;;;;;;8.10;5.18;;;21.30;39.20;;;;;;4976501;28;20047;-71
2022/04/21 12:50:22;;;;;;;7.80;5.32;;;21.80;38.10;;;;;;4959180;28;20626;-72
2022/04/21 12:52:51;;;;;;;6.32;5.10;;;22.00;37.00;;;;;;4975703;28;20058;-72
2022/04/21 12:55:28;;;;;;;8.18;4.75;;;22.10;36.60;;;;;;4976051;28;20051;-72
2022/04/21 12:58:11;;;;;;;8.85;5.07;;;21.90;36.90;;;;;;4942844;28;20058;-72
2022/04/21 13:00:42;;;;;;;7.33;5.30;;;22.00;37.20;;;;;;4975364;28;20051;-71
2022/04/21 13:03:11;;;;;;;6.10;5.50;;;22.20;36.60;;;;;;4975922;28;20729;-71
2022/04/21 13:05:51;;;;;;;7.47;5.20;;;22.20;36.30;;;;;;4975460;28;20062;-72
2022/04/21 13:08:20;;;;;;;12.07;5.40;;;22.20;36.30;;;;;;4975746;28;20054;-71
2022/04/21 13:10:48;;;;;;;9.00;5.32;;;21.90;36.60;;;;;;4976447;28;20058;-72
2022/04/21 13:13:16;;;;;;;7.00;4.88;;;21.50;36.80;;;;;;4976359;28;20054;-72
2022/04/21 13:15:45;;;;;;;10.38;4.90;;;21.40;37.20;;;;;;4958893;28;20400;-72
2022/04/21 13:18:15;;;;;;;6.32;5.00;;;21.80;36.70;;;;;;4975461;28;20066;-72
2022/04/21 13:23:31;;;;;;;10.45;5.38;;;22.00;35.40;;;;;;4958077;28;20504;-71
2022/04/21 13:26:00;;;;;;;6.30;5.20;;;22.00;35.60;;;;;;4958206;28;20039;-72
2022/04/21 13:28:48;;;;;;;7.70;5.50;;;22.30;35.50;;;;;;4974678;28;20042;-72
2022/04/21 13:34:02;;;;;;;8.18;5.15;;;22.40;35.60;;;;;;4942396;28;20054;-71
2022/04/21 13:36:30;;;;;;;7.32;5.65;;;23.20;34.50;;;;;;4957165;28;20047;-71
2022/04/21 13:39:00;;;;;;;9.18;5.32;;;23.80;33.80;;;;;;4968964;28;20055;-71
2022/04/21 13:41:28;;;;;;;6.05;4.75;;;24.00;32.80;;;;;;4955790;29;20047;-71
2022/04/21 13:43:55;;;;;;;8.15;5.15;;;24.00;32.50;;;;;;4955803;29;20048;-71
2022/04/21 13:46:43;;;;;;;8.50;6.20;;;23.50;32.20;;;;;;4954846;29;20409;-71
2022/04/21 13:49:11;;;;;;;7.70;5.38;;;22.70;33.40;;;;;;4938106;29;20062;-72
2022/04/21 13:51:40;;;;;;;9.13;6.40;;;22.40;34.00;;;;;;4954938;29;20493;-70
2022/04/21 13:54:07;;;;;;;6.45;5.85;;;22.20;34.20;;;;;;4955035;29;20054;-70
2022/04/21 13:56:35;;;;;;;8.15;5.30;;;21.80;34.80;;;;;;4955555;29;20054;-70
2022/04/21 13:59:04;;;;;;;6.43;4.82;;;22.20;34.80;;;;;;4955483;29;20406;-70
2022/04/21 14:01:32;;;;;;;8.10;5.38;;;23.00;34.30;;;;;;4954783;29;20062;-71